TJBQ/BQN METAR and TAF weather

Enter ICAO airport designator
Station Type Date Time Source
TJBQ METAR 2022/05/25 00:50 UTC NOAA

TJBQ 250050Z 10008KT 10SM SCT019 BKN026 25/23 A3003


Station Type Date Time Source
TJBQ Decoded METAR 2022/05/25 00:50 UTC NOAA

Aquadilla, Rafael Hernandez Airport, PR, United States (TJBQ) 18-30N 067-08W 69M
May 24, 2022 - 08:50 PM EDT / 2022.05.25 0050 UTC
Wind: from the E (100 degrees) at 9 MPH (8 KT):0
Visibility: 10 mile(s):0
Sky conditions: mostly cloudy
Temperature: 77 F (25 C)
Dew Point: 73 F (23 C)
Relative Humidity: 88%
Pressure (altimeter): 30.03 in. Hg (1016 hPa)
ob: TJBQ 250050Z 10008KT 10SM SCT019 BKN026 25/23 A3003
cycle: 1

Station Type Date Time Source
TJBQ TAF 2022/05/25 00:03 UTC NOAA

TAF TJBQ 242356Z 2500/2524 09011KT P6SM VCSH SCT020 SCT050
TEMPO 2500/2501 VRB13KT 5SM SHRA BKN019 BKN030
FM251300 09012KT P6SM SCT030
FM251700 06014G24KT P6SM VCTS SCT030CB SCT050
FM252200 09009KT P6SM VCSH FEW035 SCT050
AMD NOT SKED 2502/2511

Example: see airport list